Salem, Wisconsin
Current Conditions -  °F | °C
As of 10:53 PM on Friday 19 Dec 2014 (Local Time) from KENW Reporting Station
Overcast Overcast  
Wind Chill: 28°   Ceiling: 2400
Heat Index: 28°   Visibility: 10mi
Dew Point: 20°   Wind: 0mph
Humidity: 72%   Direction: NA
Pressure: 30.26"   Gusts: NA
Location:  42.55°N, 88.11°W
Report Text: KENW 200453Z AUTO 00000KT 10SM OVC024 M02/M07 A3026 RMK AO2 SLP258 T10221067
Loading
Personal Weather Stations






























Interactive Weather Map New forecast layout! Learn more

10-Day Weather Forecast

Advertisements
Track Severe Weather on mobile